EYVIUMMS

Guest
Details From EYVI - VILNIUS INTL
To UMMS - Minsk Velikiydvor
Flight Number -
Tags generated
Created
Modified
Stats Distance 106 nm / 197 km
Max Altitude 0 ft / 0 m
Waypoints 3
Social Downloads 2
Likes 0
Share VATSIM

Download

Looking for another format? Having issues loading an existing format? Contact us
Advertisement - Login to hide

Notes

Basic altitude profile: - Ascent Rate: 2500ft/min - Ascent Speed: 250kts - Cruise Altitude: 35000ft - Cruise Speed: 420kts - Descent Rate: 1500ft/min - Descent Speed: 250kts Options: - Use NATs: yes - Use PACOTS: yes - Use low airways: yes - Use high airways: yes

Route

EYVI MNS UMMS

ID Type Via Altitude Latitude Longitude Leg Dist Tot Dist Heading (true) Name
O EYVI APT - 0 ft / 0 m 54.63417˚ 25.28580˚ - 0 nm - VILNIUS INTL
MNS VOR - 0 ft / 0 m 53.88500˚ 28.02167˚ 105 nm 105 nm 114° / 116° MINSK-2 VOR-DME
O UMMS APT - 0 ft / 0 m 53.88255˚ 28.03079˚ 0 nm 106 nm 115° / 115° Minsk Velikiydvor

Altitude Profile

Advertisement - Login to hide

EYVI

Details ICAO EYVI (VNO)
Name VILNIUS INTL
Region Lithuania
Timezone Europe/Vilnius (UTC+3.0)
Stats Elevation 646 ft / 197 m (AMSL)
Location 54.634166° 25.285796°
Runways 1
Magnetic Variation 7.530° E

METAR

EYVI 251220Z 09008KT 060V120 9999 BKN048CB 23/13 Q1024 NOSIG

Decode

TAF

Not found

Departure Runways

ID Width Length Bearing (true) Bearing (mag) Surface Threshold Offset Overrun Length
02 164 ft / 50 m 8,210 ft / 2,502 m 21.89° 14.36° Asphalt 0 ft / 0 m 151 ft / 46 m
20 164 ft / 50 m 8,210 ft / 2,502 m 201.91° 194.38° Asphalt 0 ft / 0 m 0 ft / 0 m

UMMS

Details ICAO UMMS (MSQ)
Name Minsk Velikiydvor
Region Belarus and Russia (Kaliningrad Oblast)
Timezone Europe/Minsk (UTC+3.0)
Stats Elevation 669 ft / 204 m (AMSL)
Location 53.882550° 28.030786°
Runways 1
Magnetic Variation 8.066° E

METAR

UMMS 251230Z 06005MPS 020V100 CAVOK 25/11 Q1024 R13/D NOSIG

Decode

TAF

TAF UMMS 251104Z 2512/2612 09006G11MPS 9999 SCT030 TX25/2513Z TN12/2602Z TEMPO 2512/2518 07009G14MPS 2100 -TSRA SCT005 BKN020CB TEMPO 2518/2606 1200 BCFG BR SCT004 BECMG 2606/2607 13006MPS

Decode

Destination Runways

ID Width Length Bearing (true) Bearing (mag) Surface Threshold Offset Overrun Length
13 197 ft / 60 m 11,938 ft / 3,639 m 138.85° 130.78° Concrete 0 ft / 0 m 0 ft / 0 m
31 197 ft / 60 m 11,938 ft / 3,639 m 318.88° 310.81° Concrete 0 ft / 0 m 0 ft / 0 m

Approach Navaids

Runway Type Ident Frequency Range Bearing (true) Bearing (mag) Slope Elevation
13 Localiser IVX 108.90 MHz 18 nm / 33 km 138.79° 130.73° - 669 ft / 204 m (AMSL)
13 Glidescope IVX 108.90 MHz 10 nm / 19 km 138.79° 130.73° 2.70° 669 ft / 204 m (AMSL)
31 Localiser IGH 109.70 MHz 18 nm / 33 km 318.83° 310.77° - 669 ft / 204 m (AMSL)
31 Glidescope IGH 109.70 MHz 10 nm / 19 km 318.83° 310.77° 2.70° 669 ft / 204 m (AMSL)

Popular Alternatives